sensor_id;sensor_type;location;lat;lon;timestamp;pressure;altitude;pressure_sealevel;temperature;humidity
61537;BME280;48695;53.480;-6.300;2022-08-19T00:00:01;100521.97;;;16.77;58.39
61537;BME280;48695;53.480;-6.300;2022-08-19T00:02:26;100529.25;;;16.72;58.69
61537;BME280;48695;53.480;-6.300;2022-08-19T00:04:52;100532.13;;;16.68;58.44
61537;BME280;48695;53.480;-6.300;2022-08-19T00:07:20;100512.66;;;16.53;58.79
61537;BME280;48695;53.480;-6.300;2022-08-19T00:09:46;100530.00;;;16.57;59.00
61537;BME280;48695;53.480;-6.300;2022-08-19T00:12:12;100532.00;;;16.52;59.57
61537;BME280;48695;53.480;-6.300;2022-08-19T00:14:37;100532.19;;;16.49;59.20
61537;BME280;48695;53.480;-6.300;2022-08-19T00:17:04;100541.91;;;16.47;59.06
61537;BME280;48695;53.480;-6.300;2022-08-19T00:19:30;100538.53;;;16.45;58.94
61537;BME280;48695;53.480;-6.300;2022-08-19T00:21:56;100541.28;;;16.42;59.27
61537;BME280;48695;53.480;-6.300;2022-08-19T00:24:22;100540.63;;;16.38;59.45
61537;BME280;48695;53.480;-6.300;2022-08-19T00:26:48;100527.97;;;16.27;59.69
61537;BME280;48695;53.480;-6.300;2022-08-19T00:29:17;100521.28;;;16.20;59.68
61537;BME280;48695;53.480;-6.300;2022-08-19T00:31:43;100546.25;;;16.30;59.89
61537;BME280;48695;53.480;-6.300;2022-08-19T00:34:09;100544.78;;;16.25;59.62
61537;BME280;48695;53.480;-6.300;2022-08-19T00:36:36;100546.63;;;16.23;59.52
61537;BME280;48695;53.480;-6.300;2022-08-19T00:39:03;100548.47;;;16.21;59.75
61537;BME280;48695;53.480;-6.300;2022-08-19T00:41:29;100545.16;;;16.17;60.00
61537;BME280;48695;53.480;-6.300;2022-08-19T00:44:04;100547.84;;;16.16;59.96
61537;BME280;48695;53.480;-6.300;2022-08-19T00:46:31;100550.91;;;16.06;60.01
61537;BME280;48695;53.480;-6.300;2022-08-19T00:48:58;100545.59;;;16.08;60.10
61537;BME280;48695;53.480;-6.300;2022-08-19T00:51:26;100553.63;;;16.05;59.98
61537;BME280;48695;53.480;-6.300;2022-08-19T00:53:54;100539.19;;;15.95;60.02
61537;BME280;48695;53.480;-6.300;2022-08-19T00:56:20;100552.22;;;15.98;60.63
61537;BME280;48695;53.480;-6.300;2022-08-19T00:58:47;100550.66;;;15.94;60.15
61537;BME280;48695;53.480;-6.300;2022-08-19T01:01:12;100550.78;;;15.91;60.46
61537;BME280;48695;53.480;-6.300;2022-08-19T01:03:39;100536.44;;;15.79;60.59
61537;BME280;48695;53.480;-6.300;2022-08-19T01:06:04;100550.31;;;15.82;60.73
61537;BME280;48695;53.480;-6.300;2022-08-19T01:08:30;100540.75;;;15.80;60.73
61537;BME280;48695;53.480;-6.300;2022-08-19T01:10:57;100539.16;;;15.77;60.52
61537;BME280;48695;53.480;-6.300;2022-08-19T01:13:27;100542.84;;;15.73;61.35
61537;BME280;48695;53.480;-6.300;2022-08-19T01:15:59;100532.41;;;15.72;61.29
61537;BME280;48695;53.480;-6.300;2022-08-19T01:18:26;100537.88;;;15.67;61.52
61537;BME280;48695;53.480;-6.300;2022-08-19T01:20:54;100537.88;;;15.67;61.57
61537;BME280;48695;53.480;-6.300;2022-08-19T01:23:21;100538.84;;;15.65;62.03
61537;BME280;48695;53.480;-6.300;2022-08-19T01:26:07;100545.81;;;15.66;62.21
61537;BME280;48695;53.480;-6.300;2022-08-19T01:28:32;100543.19;;;15.66;62.01
61537;BME280;48695;53.480;-6.300;2022-08-19T01:30:58;100531.28;;;15.57;62.02
61537;BME280;48695;53.480;-6.300;2022-08-19T01:33:23;100556.22;;;15.69;62.11
61537;BME280;48695;53.480;-6.300;2022-08-19T01:35:49;100539.69;;;15.65;62.22
61537;BME280;48695;53.480;-6.300;2022-08-19T01:38:26;100530.03;;;15.66;61.95
61537;BME280;48695;53.480;-6.300;2022-08-19T01:40:52;100553.38;;;15.73;62.24
61537;BME280;48695;53.480;-6.300;2022-08-19T01:43:18;100560.34;;;15.74;62.25
61537;BME280;48695;53.480;-6.300;2022-08-19T01:45:45;100555.06;;;15.74;62.63
61537;BME280;48695;53.480;-6.300;2022-08-19T01:48:10;100551.50;;;15.75;62.57
61537;BME280;48695;53.480;-6.300;2022-08-19T01:50:36;100559.34;;;15.77;62.55
61537;BME280;48695;53.480;-6.300;2022-08-19T01:53:06;100559.28;;;15.78;62.46
61537;BME280;48695;53.480;-6.300;2022-08-19T01:55:32;100553.06;;;15.79;62.59
61537;BME280;48695;53.480;-6.300;2022-08-19T01:58:01;100537.50;;;15.75;63.08
61537;BME280;48695;53.480;-6.300;2022-08-19T02:00:29;100548.44;;;15.85;62.47
61537;BME280;48695;53.480;-6.300;2022-08-19T02:02:56;100549.31;;;15.85;62.83
61537;BME280;48695;53.480;-6.300;2022-08-19T02:05:22;100529.59;;;15.75;62.65
61537;BME280;48695;53.480;-6.300;2022-08-19T02:07:48;100545.69;;;15.88;62.79
61537;BME280;48695;53.480;-6.300;2022-08-19T02:10:19;100539.41;;;15.90;62.66
61537;BME280;48695;53.480;-6.300;2022-08-19T02:12:45;100543.81;;;15.90;63.01
61537;BME280;48695;53.480;-6.300;2022-08-19T02:15:11;100550.66;;;15.94;62.85
61537;BME280;48695;53.480;-6.300;2022-08-19T02:17:37;100556.69;;;15.96;62.87
61537;BME280;48695;53.480;-6.300;2022-08-19T02:20:03;100558.44;;;15.97;62.74
61537;BME280;48695;53.480;-6.300;2022-08-19T02:22:29;100565.31;;;15.99;62.43
61537;BME280;48695;53.480;-6.300;2022-08-19T02:24:55;100560.91;;;16.00;62.85
61537;BME280;48695;53.480;-6.300;2022-08-19T02:27:21;100558.25;;;16.00;62.90
61537;BME280;48695;53.480;-6.300;2022-08-19T02:29:48;100563.41;;;16.03;62.98
61537;BME280;48695;53.480;-6.300;2022-08-19T02:32:14;100557.34;;;16.01;63.00
61537;BME280;48695;53.480;-6.300;2022-08-19T02:34:40;100537.63;;;15.91;62.56
61537;BME280;48695;53.480;-6.300;2022-08-19T02:37:06;100550.38;;;16.00;62.61
61537;BME280;48695;53.480;-6.300;2022-08-19T02:39:51;100558.44;;;15.97;62.33
61537;BME280;48695;53.480;-6.300;2022-08-19T02:42:17;100559.50;;;15.93;62.33
61537;BME280;48695;53.480;-6.300;2022-08-19T02:44:42;100554.44;;;15.88;62.65
61537;BME280;48695;53.480;-6.300;2022-08-19T02:47:07;100552.94;;;15.82;62.43
61537;BME280;48695;53.480;-6.300;2022-08-19T02:49:33;100549.69;;;15.77;62.76
61537;BME280;48695;53.480;-6.300;2022-08-19T02:51:58;100534.50;;;15.64;63.16
61537;BME280;48695;53.480;-6.300;2022-08-19T02:54:23;100542.19;;;15.68;63.21
61537;BME280;48695;53.480;-6.300;2022-08-19T02:56:49;100545.09;;;15.62;63.29
61537;BME280;48695;53.480;-6.300;2022-08-19T02:59:14;100548.63;;;15.61;63.29
61537;BME280;48695;53.480;-6.300;2022-08-19T03:01:41;100549.63;;;15.58;63.77
61537;BME280;48695;53.480;-6.300;2022-08-19T03:04:08;100551.53;;;15.55;63.47
61537;BME280;48695;53.480;-6.300;2022-08-19T03:06:36;100553.47;;;15.51;63.46
61537;BME280;48695;53.480;-6.300;2022-08-19T03:09:02;100546.63;;;15.47;63.94
61537;BME280;48695;53.480;-6.300;2022-08-19T03:11:31;100545.78;;;15.47;63.86
61537;BME280;48695;53.480;-6.300;2022-08-19T03:13:57;100545.47;;;15.34;64.15
61537;BME280;48695;53.480;-6.300;2022-08-19T03:16:25;100547.25;;;15.34;64.29
61537;BME280;48695;53.480;-6.300;2022-08-19T03:18:52;100548.03;;;15.36;64.09
61537;BME280;48695;53.480;-6.300;2022-08-19T03:21:23;100549.88;;;15.34;64.25
61537;BME280;48695;53.480;-6.300;2022-08-19T03:23:49;100558.72;;;15.32;64.15
61537;BME280;48695;53.480;-6.300;2022-08-19T03:26:15;100553.56;;;15.29;64.13
61537;BME280;48695;53.480;-6.300;2022-08-19T03:28:41;100540.03;;;15.18;64.69
61537;BME280;48695;53.480;-6.300;2022-08-19T03:31:12;100558.13;;;15.26;64.09
61537;BME280;48695;53.480;-6.300;2022-08-19T03:33:42;100560.03;;;15.22;64.71
61537;BME280;48695;53.480;-6.300;2022-08-19T03:36:11;100566.22;;;15.21;64.61
61537;BME280;48695;53.480;-6.300;2022-08-19T03:38:43;100550.56;;;15.18;64.25
61537;BME280;48695;53.480;-6.300;2022-08-19T03:41:13;100565.56;;;15.16;64.94
61537;BME280;48695;53.480;-6.300;2022-08-19T03:43:42;100570.88;;;15.15;64.78
61537;BME280;48695;53.480;-6.300;2022-08-19T03:46:10;100557.81;;;15.13;65.25
61537;BME280;48695;53.480;-6.300;2022-08-19T03:48:38;100560.25;;;15.18;65.40
61537;BME280;48695;53.480;-6.300;2022-08-19T03:51:05;100553.13;;;15.20;65.09
61537;BME280;48695;53.480;-6.300;2022-08-19T03:53:33;100550.44;;;15.21;65.52
61537;BME280;48695;53.480;-6.300;2022-08-19T03:55:59;100543.44;;;15.20;65.34
61537;BME280;48695;53.480;-6.300;2022-08-19T03:58:29;100541.75;;;15.19;65.85
61537;BME280;48695;53.480;-6.300;2022-08-19T04:00:58;100547.00;;;15.19;64.67
61537;BME280;48695;53.480;-6.300;2022-08-19T04:03:24;100547.16;;;15.16;65.58
61537;BME280;48695;53.480;-6.300;2022-08-19T04:05:52;100542.03;;;15.13;64.96
61537;BME280;48695;53.480;-6.300;2022-08-19T04:08:19;100511.66;;;15.06;64.94
61537;BME280;48695;53.480;-6.300;2022-08-19T04:10:48;100535.19;;;15.09;65.58
61537;BME280;48695;53.480;-6.300;2022-08-19T04:13:17;100544.94;;;15.07;65.67
61537;BME280;48695;53.480;-6.300;2022-08-19T04:15:44;100537.31;;;15.01;65.88
61537;BME280;48695;53.480;-6.300;2022-08-19T04:18:12;100542.56;;;15.01;65.98
61537;BME280;48695;53.480;-6.300;2022-08-19T04:20:45;100544.28;;;15.02;65.02
61537;BME280;48695;53.480;-6.300;2022-08-19T04:23:13;100539.28;;;14.96;66.16
61537;BME280;48695;53.480;-6.300;2022-08-19T04:25:40;100542.81;;;14.95;66.52
61537;BME280;48695;53.480;-6.300;2022-08-19T04:28:07;100549.06;;;14.92;66.05
61537;BME280;48695;53.480;-6.300;2022-08-19T04:30:43;100548.22;;;14.92;65.85
61537;BME280;48695;53.480;-6.300;2022-08-19T04:33:10;100537.81;;;14.89;66.21
61537;BME280;48695;53.480;-6.300;2022-08-19T04:35:38;100546.72;;;14.86;65.90
61537;BME280;48695;53.480;-6.300;2022-08-19T04:38:04;100536.25;;;14.85;65.89
61537;BME280;48695;53.480;-6.300;2022-08-19T04:40:30;100514.91;;;14.72;66.26
61537;BME280;48695;53.480;-6.300;2022-08-19T04:43:14;100541.66;;;14.82;66.23
61537;BME280;48695;53.480;-6.300;2022-08-19T04:45:39;100541.72;;;14.80;65.90
61537;BME280;48695;53.480;-6.300;2022-08-19T04:48:05;100542.69;;;14.77;65.83
61537;BME280;48695;53.480;-6.300;2022-08-19T04:50:30;100548.03;;;14.76;66.04
61537;BME280;48695;53.480;-6.300;2022-08-19T04:52:56;100542.81;;;14.74;66.10
61537;BME280;48695;53.480;-6.300;2022-08-19T04:55:21;100551.63;;;14.73;66.55
61537;BME280;48695;53.480;-6.300;2022-08-19T04:57:47;100552.63;;;14.71;66.32
61537;BME280;48695;53.480;-6.300;2022-08-19T05:00:12;100552.66;;;14.69;66.70
61537;BME280;48695;53.480;-6.300;2022-08-19T05:02:38;100550.97;;;14.68;66.90
61537;BME280;48695;53.480;-6.300;2022-08-19T05:05:06;100563.25;;;14.68;66.73
61537;BME280;48695;53.480;-6.300;2022-08-19T05:07:32;100566.00;;;14.65;66.89
61537;BME280;48695;53.480;-6.300;2022-08-19T05:09:57;100571.31;;;14.63;67.24
61537;BME280;48695;53.480;-6.300;2022-08-19T05:12:23;100550.69;;;14.54;67.12
61537;BME280;48695;53.480;-6.300;2022-08-19T05:14:49;100562.66;;;14.61;67.04
61537;BME280;48695;53.480;-6.300;2022-08-19T05:17:15;100568.84;;;14.60;66.92
61537;BME280;48695;53.480;-6.300;2022-08-19T05:19:41;100556.59;;;14.59;67.15
61537;BME280;48695;53.480;-6.300;2022-08-19T05:22:25;100562.78;;;14.58;66.97
61537;BME280;48695;53.480;-6.300;2022-08-19T05:24:57;100560.16;;;14.58;66.61
61537;BME280;48695;53.480;-6.300;2022-08-19T05:27:23;100558.38;;;14.59;67.28
61537;BME280;48695;53.480;-6.300;2022-08-19T05:29:48;100559.31;;;14.58;67.04
61537;BME280;48695;53.480;-6.300;2022-08-19T05:32:13;100548.31;;;14.48;67.04
61537;BME280;48695;53.480;-6.300;2022-08-19T05:34:39;100549.91;;;14.52;66.89
61537;BME280;48695;53.480;-6.300;2022-08-19T05:37:05;100560.31;;;14.55;67.08
61537;BME280;48695;53.480;-6.300;2022-08-19T05:39:33;100564.56;;;14.58;64.81
61537;BME280;48695;53.480;-6.300;2022-08-19T05:42:05;100559.63;;;14.50;66.90
61537;BME280;48695;53.480;-6.300;2022-08-19T05:44:34;100571.69;;;14.54;67.17
61537;BME280;48695;53.480;-6.300;2022-08-19T05:47:02;100560.75;;;14.43;66.92
61537;BME280;48695;53.480;-6.300;2022-08-19T05:49:28;100578.72;;;14.53;65.06
61537;BME280;48695;53.480;-6.300;2022-08-19T05:51:54;100567.84;;;14.41;66.87
61537;BME280;48695;53.480;-6.300;2022-08-19T05:54:21;100583.28;;;14.50;67.42
61537;BME280;48695;53.480;-6.300;2022-08-19T05:56:49;100585.00;;;14.51;66.92
61537;BME280;48695;53.480;-6.300;2022-08-19T05:59:16;100591.09;;;14.51;67.58
61537;BME280;48695;53.480;-6.300;2022-08-19T06:01:45;100571.25;;;14.43;66.88
61537;BME280;48695;53.480;-6.300;2022-08-19T06:04:12;100605.09;;;14.52;67.53
61537;BME280;48695;53.480;-6.300;2022-08-19T06:06:42;100607.72;;;14.52;67.36
61537;BME280;48695;53.480;-6.300;2022-08-19T06:09:08;100606.84;;;14.51;67.32
61537;BME280;48695;53.480;-6.300;2022-08-19T06:11:39;100619.81;;;14.56;67.13
61537;BME280;48695;53.480;-6.300;2022-08-19T06:14:09;100629.47;;;14.56;67.02
61537;BME280;48695;53.480;-6.300;2022-08-19T06:16:36;100623.38;;;14.55;67.20
61537;BME280;48695;53.480;-6.300;2022-08-19T06:19:07;100623.38;;;14.55;66.99
61537;BME280;48695;53.480;-6.300;2022-08-19T06:21:34;100629.47;;;14.56;67.87
61537;BME280;48695;53.480;-6.300;2022-08-19T06:24:01;100620.66;;;14.57;67.40
61537;BME280;48695;53.480;-6.300;2022-08-19T06:26:27;100604.34;;;14.48;67.58
61537;BME280;48695;53.480;-6.300;2022-08-19T06:28:52;100633.63;;;14.61;67.73
61537;BME280;48695;53.480;-6.300;2022-08-19T06:31:21;100626.53;;;14.63;67.67
61537;BME280;48695;53.480;-6.300;2022-08-19T06:33:48;100617.97;;;14.58;67.75
61537;BME280;48695;53.480;-6.300;2022-08-19T06:36:26;100620.34;;;14.64;67.01
61537;BME280;48695;53.480;-6.300;2022-08-19T06:38:57;100635.81;;;14.72;67.92
61537;BME280;48695;53.480;-6.300;2022-08-19T06:41:27;100639.97;;;14.77;67.24
61537;BME280;48695;53.480;-6.300;2022-08-19T06:43:54;100640.69;;;14.81;66.23
61537;BME280;48695;53.480;-6.300;2022-08-19T06:46:20;100643.25;;;14.83;67.71
61537;BME280;48695;53.480;-6.300;2022-08-19T06:48:47;100651.81;;;14.88;67.89
61537;BME280;48695;53.480;-6.300;2022-08-19T06:51:14;100650.78;;;14.92;68.04
61537;BME280;48695;53.480;-6.300;2022-08-19T06:53:43;100647.03;;;14.97;67.26
61537;BME280;48695;53.480;-6.300;2022-08-19T06:56:11;100642.50;;;15.01;67.76
61537;BME280;48695;53.480;-6.300;2022-08-19T06:58:37;100638.75;;;15.07;67.44
61537;BME280;48695;53.480;-6.300;2022-08-19T07:01:04;100643.63;;;15.16;67.50
61537;BME280;48695;53.480;-6.300;2022-08-19T07:03:31;100650.34;;;15.23;67.55
61537;BME280;48695;53.480;-6.300;2022-08-19T07:06:11;100641.19;;;15.31;66.62
61537;BME280;48695;53.480;-6.300;2022-08-19T07:08:37;100649.88;;;15.34;67.47
61537;BME280;48695;53.480;-6.300;2022-08-19T07:11:08;100654.59;;;15.46;65.66
61537;BME280;48695;53.480;-6.300;2022-08-19T07:13:34;100649.28;;;15.47;66.80
61537;BME280;48695;53.480;-6.300;2022-08-19T07:16:07;100651.56;;;15.55;66.79
61537;BME280;48695;53.480;-6.300;2022-08-19T07:18:33;100636.97;;;15.48;67.09
61537;BME280;48695;53.480;-6.300;2022-08-19T07:21:35;100652.97;;;15.64;66.71
61537;BME280;48695;53.480;-6.300;2022-08-19T07:23:55;100663.09;;;15.73;67.11
61537;BME280;48695;53.480;-6.300;2022-08-19T07:26:26;100636.91;;;15.70;66.57
61537;BME280;48695;53.480;-6.300;2022-08-19T07:28:53;100660.63;;;15.89;66.77
61537;BME280;48695;53.480;-6.300;2022-08-19T07:31:22;100660.22;;;15.98;66.17
61537;BME280;48695;53.480;-6.300;2022-08-19T07:33:50;100660.00;;;16.02;66.02
61537;BME280;48695;53.480;-6.300;2022-08-19T07:36:20;100667.69;;;16.07;66.32
61537;BME280;48695;53.480;-6.300;2022-08-19T07:38:47;100664.13;;;16.08;66.19
61537;BME280;48695;53.480;-6.300;2022-08-19T07:41:17;100669.19;;;16.13;66.34
61537;BME280;48695;53.480;-6.300;2022-08-19T07:43:42;100670.97;;;16.12;66.23
61537;BME280;48695;53.480;-6.300;2022-08-19T07:46:10;100664.81;;;16.12;66.31
61537;BME280;48695;53.480;-6.300;2022-08-19T07:48:36;100676.88;;;16.17;65.69
61537;BME280;48695;53.480;-6.300;2022-08-19T07:51:04;100668.81;;;16.20;66.13
61537;BME280;48695;53.480;-6.300;2022-08-19T07:53:30;100679.22;;;16.23;65.97
61537;BME280;48695;53.480;-6.300;2022-08-19T07:55:58;100678.94;;;16.29;66.06
61537;BME280;48695;53.480;-6.300;2022-08-19T07:58:30;100691.75;;;16.37;65.86
61537;BME280;48695;53.480;-6.300;2022-08-19T08:00:56;100668.28;;;16.32;65.81
61537;BME280;48695;53.480;-6.300;2022-08-19T08:03:22;100685.06;;;16.49;65.49
61537;BME280;48695;53.480;-6.300;2022-08-19T08:06:12;100695.31;;;16.55;65.46
61537;BME280;48695;53.480;-6.300;2022-08-19T08:08:55;100688.03;;;16.60;65.38
61537;BME280;48695;53.480;-6.300;2022-08-19T08:11:42;100694.56;;;16.70;65.14
61537;BME280;48695;53.480;-6.300;2022-08-19T08:14:15;100701.59;;;16.71;65.17
61537;BME280;48695;53.480;-6.300;2022-08-19T08:16:41;100705.44;;;16.83;64.71
61537;BME280;48695;53.480;-6.300;2022-08-19T08:19:09;100698.91;;;16.90;64.80
61537;BME280;48695;53.480;-6.300;2022-08-19T08:21:35;100659.25;;;16.74;64.48
61537;BME280;48695;53.480;-6.300;2022-08-19T08:24:00;100688.59;;;17.03;64.75
61537;BME280;48695;53.480;-6.300;2022-08-19T08:26:26;100689.22;;;17.08;64.54
61537;BME280;48695;53.480;-6.300;2022-08-19T08:28:52;100688.72;;;17.19;64.32
61537;BME280;48695;53.480;-6.300;2022-08-19T08:31:18;100682.03;;;17.29;63.95
61537;BME280;48695;53.480;-6.300;2022-08-19T08:33:44;100684.88;;;17.42;64.23
61537;BME280;48695;53.480;-6.300;2022-08-19T08:36:11;100695.59;;;17.56;63.71
61537;BME280;48695;53.480;-6.300;2022-08-19T08:38:39;100696.69;;;17.69;63.19
61537;BME280;48695;53.480;-6.300;2022-08-19T08:43:54;100711.09;;;17.97;62.33
61537;BME280;48695;53.480;-6.300;2022-08-19T08:46:29;100700.41;;;18.15;62.95
61537;BME280;48695;53.480;-6.300;2022-08-19T08:52:21;100694.94;;;18.34;61.98
61537;BME280;48695;53.480;-6.300;2022-08-19T08:54:50;100698.03;;;18.42;60.39
61537;BME280;48695;53.480;-6.300;2022-08-19T08:59:51;100698.38;;;18.68;60.07
61537;BME280;48695;53.480;-6.300;2022-08-19T09:02:19;100694.13;;;18.81;59.74
61537;BME280;48695;53.480;-6.300;2022-08-19T09:04:45;100682.47;;;19.00;59.24
61537;BME280;48695;53.480;-6.300;2022-08-19T09:09:50;100689.59;;;19.43;58.52
61537;BME280;48695;53.480;-6.300;2022-08-19T09:15:25;100702.56;;;19.92;58.87
61537;BME280;48695;53.480;-6.300;2022-08-19T09:17:53;100696.00;;;20.12;59.51
61537;BME280;48695;53.480;-6.300;2022-08-19T09:20:21;100698.72;;;20.25;55.82
61537;BME280;48695;53.480;-6.300;2022-08-19T09:22:48;100694.94;;;20.43;54.63
61537;BME280;48695;53.480;-6.300;2022-08-19T09:25:18;100698.22;;;20.61;54.31
61537;BME280;48695;53.480;-6.300;2022-08-19T09:27:47;100702.38;;;20.65;53.30
61537;BME280;48695;53.480;-6.300;2022-08-19T09:30:22;100704.75;;;20.70;53.88
61537;BME280;48695;53.480;-6.300;2022-08-19T09:32:49;100684.78;;;20.50;52.93
61537;BME280;48695;53.480;-6.300;2022-08-19T09:35:17;100701.72;;;20.62;53.45
61537;BME280;48695;53.480;-6.300;2022-08-19T09:37:43;100702.50;;;20.64;53.50
61537;BME280;48695;53.480;-6.300;2022-08-19T09:40:10;100699.06;;;20.62;54.01
61537;BME280;48695;53.480;-6.300;2022-08-19T09:42:36;100704.59;;;20.59;53.69
61537;BME280;48695;53.480;-6.300;2022-08-19T09:45:02;100696.34;;;20.63;53.57
61537;BME280;48695;53.480;-6.300;2022-08-19T09:47:28;100712.25;;;20.63;53.26
61537;BME280;48695;53.480;-6.300;2022-08-19T09:49:54;100700.75;;;20.63;52.41
61537;BME280;48695;53.480;-6.300;2022-08-19T09:52:20;100695.00;;;20.56;52.97
61537;BME280;48695;53.480;-6.300;2022-08-19T09:54:46;100689.91;;;20.53;52.69
61537;BME280;48695;53.480;-6.300;2022-08-19T09:57:14;100695.41;;;20.50;53.06
61537;BME280;48695;53.480;-6.300;2022-08-19T09:59:41;100689.44;;;20.46;52.93
61537;BME280;48695;53.480;-6.300;2022-08-19T10:02:07;100699.28;;;20.44;52.82
61537;BME280;48695;53.480;-6.300;2022-08-19T10:04:34;100694.16;;;20.41;53.66
61537;BME280;48695;53.480;-6.300;2022-08-19T10:07:18;100700.59;;;20.37;53.17
61537;BME280;48695;53.480;-6.300;2022-08-19T10:09:44;100701.56;;;20.36;52.30
61537;BME280;48695;53.480;-6.300;2022-08-19T10:12:09;100690.19;;;20.34;52.19
61537;BME280;48695;53.480;-6.300;2022-08-19T10:14:35;100681.69;;;20.29;53.16
61537;BME280;48695;53.480;-6.300;2022-08-19T10:17:01;100686.16;;;20.29;53.49
61537;BME280;48695;53.480;-6.300;2022-08-19T10:19:27;100688.69;;;20.30;53.43
61537;BME280;48695;53.480;-6.300;2022-08-19T10:21:55;100689.63;;;20.43;55.18
61537;BME280;48695;53.480;-6.300;2022-08-19T10:24:20;100698.06;;;20.36;53.12
61537;BME280;48695;53.480;-6.300;2022-08-19T10:26:49;100703.47;;;20.34;53.21
61537;BME280;48695;53.480;-6.300;2022-08-19T10:29:14;100702.13;;;20.27;53.97
61537;BME280;48695;53.480;-6.300;2022-08-19T10:31:41;100690.97;;;20.22;54.05
61537;BME280;48695;53.480;-6.300;2022-08-19T10:34:07;100696.59;;;20.17;53.83
61537;BME280;48695;53.480;-6.300;2022-08-19T10:36:36;100710.03;;;20.14;54.22
61537;BME280;48695;53.480;-6.300;2022-08-19T10:39:03;100705.56;;;20.15;54.55
61537;BME280;48695;53.480;-6.300;2022-08-19T10:41:32;100695.72;;;20.03;55.44
61537;BME280;48695;53.480;-6.300;2022-08-19T10:44:04;100700.38;;;19.99;54.90
61537;BME280;48695;53.480;-6.300;2022-08-19T10:46:31;100701.59;;;19.93;54.94
61537;BME280;48695;53.480;-6.300;2022-08-19T10:48:59;100690.03;;;19.94;54.84
61537;BME280;48695;53.480;-6.300;2022-08-19T10:51:25;100708.78;;;20.06;55.20
61537;BME280;48695;53.480;-6.300;2022-08-19T10:54:09;100698.38;;;20.03;55.03
61537;BME280;48695;53.480;-6.300;2022-08-19T10:56:35;100700.81;;;20.06;55.04
61537;BME280;48695;53.480;-6.300;2022-08-19T10:59:24;100691.91;;;20.21;54.55
61537;BME280;48695;53.480;-6.300;2022-08-19T11:01:51;100708.78;;;20.49;54.24
61537;BME280;48695;53.480;-6.300;2022-08-19T11:04:18;100703.56;;;20.88;53.05
61537;BME280;48695;53.480;-6.300;2022-08-19T11:06:45;100699.75;;;21.32;52.09
61537;BME280;48695;53.480;-6.300;2022-08-19T11:09:19;100686.59;;;21.69;51.71
61537;BME280;48695;53.480;-6.300;2022-08-19T11:11:45;100670.63;;;21.94;50.65
61537;BME280;48695;53.480;-6.300;2022-08-19T11:14:13;100682.66;;;22.49;49.65
61537;BME280;48695;53.480;-6.300;2022-08-19T11:16:41;100683.81;;;22.82;49.41
61537;BME280;48695;53.480;-6.300;2022-08-19T11:19:09;100692.38;;;23.22;47.80
61537;BME280;48695;53.480;-6.300;2022-08-19T11:21:35;100693.78;;;23.62;52.29
61537;BME280;48695;53.480;-6.300;2022-08-19T11:24:05;100688.66;;;23.83;47.65
61537;BME280;48695;53.480;-6.300;2022-08-19T11:26:32;100676.66;;;23.99;45.53
61537;BME280;48695;53.480;-6.300;2022-08-19T11:28:59;100698.69;;;24.13;45.67
61537;BME280;48695;53.480;-6.300;2022-08-19T11:31:27;100693.13;;;24.16;45.55
61537;BME280;48695;53.480;-6.300;2022-08-19T11:33:56;100704.78;;;24.15;45.50
61537;BME280;48695;53.480;-6.300;2022-08-19T11:36:21;100651.69;;;23.78;46.04
61537;BME280;48695;53.480;-6.300;2022-08-19T11:38:50;100695.31;;;23.99;45.65
61537;BME280;48695;53.480;-6.300;2022-08-19T11:41:18;100697.97;;;23.77;45.11
61537;BME280;48695;53.480;-6.300;2022-08-19T11:43:45;100704.06;;;23.55;45.45
61537;BME280;48695;53.480;-6.300;2022-08-19T11:46:12;100694.72;;;23.38;46.04
61537;BME280;48695;53.480;-6.300;2022-08-19T11:48:38;100688.75;;;23.23;46.38
61537;BME280;48695;53.480;-6.300;2022-08-19T11:51:07;100691.97;;;23.16;46.72
61537;BME280;48695;53.480;-6.300;2022-08-19T11:53:34;100678.06;;;23.12;47.16
61537;BME280;48695;53.480;-6.300;2022-08-19T11:56:00;100685.75;;;23.39;46.47
61537;BME280;48695;53.480;-6.300;2022-08-19T11:58:25;100691.13;;;23.62;46.49
61537;BME280;48695;53.480;-6.300;2022-08-19T12:00:51;100681.16;;;23.88;46.56
61537;BME280;48695;53.480;-6.300;2022-08-19T12:03:17;100680.03;;;24.24;46.48
61537;BME280;48695;53.480;-6.300;2022-08-19T12:05:43;100678.72;;;24.73;44.15
61537;BME280;48695;53.480;-6.300;2022-08-19T12:08:09;100673.69;;;25.23;42.98
61537;BME280;48695;53.480;-6.300;2022-08-19T12:10:35;100669.56;;;25.60;42.23
61537;BME280;48695;53.480;-6.300;2022-08-19T12:13:01;100669.63;;;25.91;43.39
61537;BME280;48695;53.480;-6.300;2022-08-19T12:15:27;100676.69;;;26.02;40.50
61537;BME280;48695;53.480;-6.300;2022-08-19T12:17:54;100667.38;;;25.96;39.71
61537;BME280;48695;53.480;-6.300;2022-08-19T12:20:22;100673.22;;;25.80;39.58
61537;BME280;48695;53.480;-6.300;2022-08-19T12:22:48;100676.03;;;25.58;40.85
61537;BME280;48695;53.480;-6.300;2022-08-19T12:25:14;100680.53;;;25.36;40.93
61537;BME280;48695;53.480;-6.300;2022-08-19T12:27:40;100685.59;;;25.19;40.59
61537;BME280;48695;53.480;-6.300;2022-08-19T12:30:08;100685.31;;;25.01;41.30
61537;BME280;48695;53.480;-6.300;2022-08-19T12:32:33;100680.91;;;24.79;41.04
61537;BME280;48695;53.480;-6.300;2022-08-19T12:34:59;100672.34;;;24.64;41.53
61537;BME280;48695;53.480;-6.300;2022-08-19T12:37:24;100681.22;;;24.53;41.69
61537;BME280;48695;53.480;-6.300;2022-08-19T12:39:50;100688.53;;;24.40;43.24
61537;BME280;48695;53.480;-6.300;2022-08-19T12:42:15;100690.34;;;24.28;42.47
61537;BME280;48695;53.480;-6.300;2022-08-19T12:44:42;100671.78;;;24.16;41.97
61537;BME280;48695;53.480;-6.300;2022-08-19T12:47:10;100670.81;;;24.05;42.96
61537;BME280;48695;53.480;-6.300;2022-08-19T12:49:36;100671.53;;;23.96;43.81
61537;BME280;48695;53.480;-6.300;2022-08-19T12:52:07;100688.50;;;24.06;45.62
61537;BME280;48695;53.480;-6.300;2022-08-19T12:54:34;100674.09;;;24.09;43.38
61537;BME280;48695;53.480;-6.300;2022-08-19T12:56:59;100679.41;;;24.20;43.50